Time;durP1;ratioP1;P1;durP2;ratioP2;P2;SDS_P1;SDS_P2;PMS_P1;PMS_P2;Temp;Humidity;BMP_temperature;BMP_pressure;BME280_temperature;BME280_humidity;BME280_pressure;Samples;Min_cycle;Max_cycle;Signal;HPM_P1;HPM_P2
2023/12/16 00:00:38;;;;;;;7.32;1.70;;;;;;;;;;5003736;27;92696;-78
2023/12/16 00:03:05;;;;;;;6.22;1.70;;;;;;;;;;5003068;27;92059;-78
2023/12/16 00:05:32;;;;;;;5.65;1.60;;;;;;;;;;5002045;27;94806;-79
2023/12/16 00:07:58;;;;;;;6.38;1.50;;;;;;;;;;4982458;28;92949;-77
2023/12/16 00:10:25;;;;;;;5.72;1.55;;;;;;;;;;4980928;28;92161;-77
2023/12/16 00:12:52;;;;;;;5.63;1.60;;;;;;;;;;4981750;28;92472;-76
2023/12/16 00:15:19;;;;;;;6.63;1.70;;;;;;;;;;4982800;28;93460;-77
2023/12/16 00:17:45;;;;;;;6.03;1.80;;;;;;;;;;4986110;28;92109;-77
2023/12/16 00:20:12;;;;;;;4.60;1.55;;;;;;;;;;4982454;28;93782;-77
2023/12/16 00:22:39;;;;;;;5.65;1.60;;;;;;;;;;4983689;28;91315;-77
2023/12/16 00:25:07;;;;;;;6.53;1.80;;;;;;;;;;4964702;28;94250;-77
2023/12/16 00:27:34;;;;;;;5.45;1.48;;;;;;;;;;4982829;28;93163;-77
2023/12/16 00:30:00;;;;;;;5.45;1.48;;;;;;;;;;4993282;28;95486;-78
2023/12/16 00:32:27;;;;;;;5.40;1.50;;;;;;;;;;5020994;28;95073;-77
2023/12/16 00:34:54;;;;;;;6.57;1.70;;;;;;;;;;5018984;28;95184;-77
2023/12/16 00:37:21;;;;;;;6.15;1.65;;;;;;;;;;5007095;28;92521;-77
2023/12/16 00:39:48;;;;;;;5.22;1.40;;;;;;;;;;5002032;28;94146;-77
2023/12/16 00:42:14;;;;;;;5.43;1.60;;;;;;;;;;4985247;28;92604;-77
2023/12/16 00:44:41;;;;;;;4.70;1.40;;;;;;;;;;5009645;28;92280;-78
2023/12/16 00:47:07;;;;;;;6.13;1.63;;;;;;;;;;5020590;28;94299;-77
2023/12/16 00:49:34;;;;;;;5.70;1.27;;;;;;;;;;5020472;28;92402;-78
2023/12/16 00:52:03;;;;;;;5.72;1.42;;;;;;;;;;5011221;27;92211;-78
2023/12/16 00:54:29;;;;;;;7.50;1.63;;;;;;;;;;5018194;28;95013;-78
2023/12/16 00:56:56;;;;;;;4.85;1.40;;;;;;;;;;5022697;27;92091;-77
2023/12/16 00:59:23;;;;;;;6.28;1.50;;;;;;;;;;5020352;28;92591;-77
2023/12/16 01:01:50;;;;;;;4.85;1.40;;;;;;;;;;5024182;27;92981;-78
2023/12/16 01:04:16;;;;;;;5.50;1.48;;;;;;;;;;5019728;28;92735;-78
2023/12/16 01:06:43;;;;;;;3.97;1.30;;;;;;;;;;5011250;28;92723;-79
2023/12/16 01:09:10;;;;;;;6.78;1.38;;;;;;;;;;5000772;28;92390;-79
2023/12/16 01:11:36;;;;;;;5.25;1.45;;;;;;;;;;4984547;28;93175;-79
2023/12/16 01:14:03;;;;;;;7.65;1.60;;;;;;;;;;5015399;28;92824;-79
2023/12/16 01:16:30;;;;;;;5.45;1.60;;;;;;;;;;5000188;28;92127;-79
2023/12/16 01:18:57;;;;;;;6.03;1.70;;;;;;;;;;4999331;28;94893;-79
2023/12/16 01:21:23;;;;;;;6.40;1.40;;;;;;;;;;5001349;28;95672;-78
2023/12/16 01:23:50;;;;;;;5.40;1.50;;;;;;;;;;5000909;28;93005;-77
2023/12/16 01:26:17;;;;;;;5.38;1.40;;;;;;;;;;5002284;28;93146;-77
2023/12/16 01:28:43;;;;;;;5.03;1.40;;;;;;;;;;5010930;28;92454;-78
2023/12/16 01:31:10;;;;;;;6.78;1.67;;;;;;;;;;5010997;28;92531;-78
2023/12/16 01:33:36;;;;;;;5.65;1.42;;;;;;;;;;5016714;28;94885;-79
2023/12/16 01:36:03;;;;;;;4.50;1.45;;;;;;;;;;5017076;28;91423;-79
2023/12/16 01:38:31;;;;;;;6.32;1.88;;;;;;;;;;5008307;28;94289;-79
2023/12/16 01:40:58;;;;;;;7.55;1.50;;;;;;;;;;5007272;28;94498;-79
2023/12/16 01:43:25;;;;;;;7.35;1.75;;;;;;;;;;5002056;28;96243;-78
2023/12/16 01:45:58;;;;;;;7.97;1.80;;;;;;;;;;5000996;28;93136;-81
2023/12/16 01:48:25;;;;;;;9.45;1.80;;;;;;;;;;5014990;28;92351;-79
2023/12/16 01:50:52;;;;;;;8.70;1.98;;;;;;;;;;5000366;28;92715;-80
2023/12/16 01:53:18;;;;;;;7.82;1.75;;;;;;;;;;5014165;28;93245;-79
2023/12/16 01:55:45;;;;;;;8.35;1.80;;;;;;;;;;5020586;28;99890;-79
2023/12/16 01:58:12;;;;;;;6.00;1.70;;;;;;;;;;5016874;28;92385;-79
2023/12/16 02:00:39;;;;;;;6.32;1.30;;;;;;;;;;5001083;28;93233;-78
2023/12/16 02:03:06;;;;;;;5.80;1.38;;;;;;;;;;5013581;28;92105;-79
2023/12/16 02:05:33;;;;;;;6.10;1.73;;;;;;;;;;5006222;28;95258;-79
2023/12/16 02:07:59;;;;;;;9.27;1.60;;;;;;;;;;4996816;28;94993;-80
2023/12/16 02:10:26;;;;;;;5.85;1.40;;;;;;;;;;5000680;28;97456;-79
2023/12/16 02:12:53;;;;;;;6.00;1.45;;;;;;;;;;4999776;28;93425;-78
2023/12/16 02:15:20;;;;;;;6.30;1.60;;;;;;;;;;5001003;28;92324;-80
2023/12/16 02:17:47;;;;;;;11.20;1.70;;;;;;;;;;5000978;28;92376;-79
2023/12/16 02:20:14;;;;;;;6.97;1.90;;;;;;;;;;5001218;28;93081;-79
2023/12/16 02:22:43;;;;;;;6.65;1.60;;;;;;;;;;5016955;28;92480;-78
2023/12/16 02:25:11;;;;;;;5.75;1.50;;;;;;;;;;5000912;28;92914;-79
2023/12/16 02:27:37;;;;;;;;;;;;;;;;;;5002712;28;92939;-79
2023/12/16 02:30:05;;;;;;;6.80;1.70;;;;;;;;;;5016086;28;115746;-79
2023/12/16 02:32:31;;;;;;;7.25;1.92;;;;;;;;;;4999105;28;94988;-79
2023/12/16 02:34:58;;;;;;;8.73;2.05;;;;;;;;;;5011111;28;92051;-79
2023/12/16 02:37:25;;;;;;;9.27;1.63;;;;;;;;;;5004564;28;92509;-79
2023/12/16 02:39:51;;;;;;;6.68;1.50;;;;;;;;;;4998802;28;93483;-78
2023/12/16 02:42:18;;;;;;;7.38;1.95;;;;;;;;;;4998693;28;93611;-78
2023/12/16 02:44:45;;;;;;;6.95;1.73;;;;;;;;;;4998310;28;92734;-79
2023/12/16 02:47:11;;;;;;;7.95;1.88;;;;;;;;;;4998361;28;94415;-79
2023/12/16 02:49:38;;;;;;;6.82;1.73;;;;;;;;;;5003470;28;91597;-79
2023/12/16 02:52:05;;;;;;;6.72;1.50;;;;;;;;;;4998915;27;93344;-78
2023/12/16 02:54:32;;;;;;;7.32;1.60;;;;;;;;;;5000373;28;92104;-79
2023/12/16 02:57:02;;;;;;;5.78;1.73;;;;;;;;;;4998938;28;94958;-79
2023/12/16 02:59:28;;;;;;;7.00;1.60;;;;;;;;;;5002315;28;92850;-82
2023/12/16 03:01:55;;;;;;;6.93;1.70;;;;;;;;;;5001376;28;92078;-80
2023/12/16 03:04:22;;;;;;;6.47;1.85;;;;;;;;;;5002295;28;93117;-79
2023/12/16 03:06:50;;;;;;;9.80;1.80;;;;;;;;;;5012218;28;93185;-79
2023/12/16 03:09:17;;;;;;;8.13;1.65;;;;;;;;;;4986365;28;92287;-79
2023/12/16 03:11:43;;;;;;;6.03;1.65;;;;;;;;;;5003608;27;94807;-80
2023/12/16 03:14:10;;;;;;;6.95;1.73;;;;;;;;;;5004524;27;91301;-79
2023/12/16 03:16:37;;;;;;;6.03;1.73;;;;;;;;;;5002430;28;93271;-80
2023/12/16 03:19:03;;;;;;;6.20;1.80;;;;;;;;;;5003919;27;92713;-80
2023/12/16 03:21:30;;;;;;;7.18;1.60;;;;;;;;;;5002501;27;94472;-79
2023/12/16 03:23:57;;;;;;;6.65;1.63;;;;;;;;;;5002934;27;94150;-80
2023/12/16 03:26:23;;;;;;;8.15;2.00;;;;;;;;;;5025596;28;92691;-79
2023/12/16 03:28:50;;;;;;;5.80;1.73;;;;;;;;;;5013417;28;92586;-79
2023/12/16 03:31:16;;;;;;;8.55;1.90;;;;;;;;;;5035345;28;94246;-80
2023/12/16 03:33:43;;;;;;;8.32;1.80;;;;;;;;;;5004501;28;92246;-80
2023/12/16 03:36:10;;;;;;;13.52;1.63;;;;;;;;;;5017417;28;94644;-80
2023/12/16 03:38:37;;;;;;;8.25;2.50;;;;;;;;;;5010925;28;92628;-80
2023/12/16 03:41:04;;;;;;;9.68;2.00;;;;;;;;;;5022762;28;92267;-80
2023/12/16 03:43:31;;;;;;;10.05;2.15;;;;;;;;;;5022054;28;92676;-80
2023/12/16 03:45:57;;;;;;;8.50;1.83;;;;;;;;;;5003281;27;95529;-80
2023/12/16 03:48:24;;;;;;;6.80;1.60;;;;;;;;;;5023853;27;92155;-79
2023/12/16 03:50:51;;;;;;;7.63;2.00;;;;;;;;;;5022481;28;95536;-80
2023/12/16 03:53:18;;;;;;;8.60;2.15;;;;;;;;;;5025343;28;94185;-79
2023/12/16 03:55:44;;;;;;;8.07;1.88;;;;;;;;;;5020628;27;92245;-80
2023/12/16 03:58:11;;;;;;;6.40;1.80;;;;;;;;;;5020814;28;95385;-81
2023/12/16 04:00:38;;;;;;;6.35;1.85;;;;;;;;;;5020355;28;92322;-80
2023/12/16 04:03:05;;;;;;;9.57;2.20;;;;;;;;;;5022684;27;93004;-80
2023/12/16 04:05:31;;;;;;;6.85;1.92;;;;;;;;;;5014474;28;93323;-80
2023/12/16 04:07:58;;;;;;;7.47;2.33;;;;;;;;;;5019095;27;92250;-80
2023/12/16 04:10:25;;;;;;;8.00;2.03;;;;;;;;;;4999900;28;95056;-79
2023/12/16 04:12:52;;;;;;;7.90;2.20;;;;;;;;;;5013012;28;93206;-79
2023/12/16 04:15:19;;;;;;;8.55;2.20;;;;;;;;;;5007981;28;92161;-79
2023/12/16 04:17:45;;;;;;;7.25;2.08;;;;;;;;;;5003663;28;96041;-80
2023/12/16 04:20:12;;;;;;;8.55;2.10;;;;;;;;;;5005537;28;92244;-79
2023/12/16 04:22:39;;;;;;;7.82;2.10;;;;;;;;;;4996099;28;95186;-79
2023/12/16 04:25:10;;;;;;;7.88;2.00;;;;;;;;;;5002588;28;92982;-80
2023/12/16 04:27:38;;;;;;;7.85;1.85;;;;;;;;;;5019443;28;91345;-79
2023/12/16 04:30:05;;;;;;;9.27;2.20;;;;;;;;;;5016832;28;98051;-79
2023/12/16 04:32:32;;;;;;;9.60;2.30;;;;;;;;;;5017816;28;94468;-78
2023/12/16 04:34:59;;;;;;;8.30;2.28;;;;;;;;;;4999865;28;94695;-79
2023/12/16 04:37:26;;;;;;;9.20;1.90;;;;;;;;;;5020441;28;95076;-80
2023/12/16 04:39:53;;;;;;;8.68;2.42;;;;;;;;;;5000023;28;92328;-80
2023/12/16 04:42:20;;;;;;;7.72;2.30;;;;;;;;;;5000570;28;92570;-79
2023/12/16 04:44:47;;;;;;;10.32;2.60;;;;;;;;;;4984009;28;95970;-80
2023/12/16 04:47:13;;;;;;;14.18;2.45;;;;;;;;;;5000873;28;92560;-79
2023/12/16 04:49:43;;;;;;;8.77;2.30;;;;;;;;;;5000222;28;92225;-79
2023/12/16 04:52:10;;;;;;;8.95;2.17;;;;;;;;;;5000123;28;96582;-80
2023/12/16 04:54:37;;;;;;;8.68;1.95;;;;;;;;;;4983485;28;92554;-79
2023/12/16 04:57:04;;;;;;;8.85;2.20;;;;;;;;;;4973873;28;94641;-78
2023/12/16 04:59:30;;;;;;;6.32;1.83;;;;;;;;;;4996999;28;96002;-78
2023/12/16 05:01:57;;;;;;;8.68;2.25;;;;;;;;;;5000242;28;94889;-79
2023/12/16 05:04:24;;;;;;;10.70;2.30;;;;;;;;;;5005153;28;92777;-80
2023/12/16 05:06:50;;;;;;;9.13;2.08;;;;;;;;;;5022611;28;92376;-79
2023/12/16 05:09:23;;;;;;;8.93;2.45;;;;;;;;;;5020310;28;92114;-79
2023/12/16 05:11:51;;;;;;;7.75;2.20;;;;;;;;;;5009285;28;93394;-78
2023/12/16 05:14:18;;;;;;;9.13;2.58;;;;;;;;;;5020250;28;92681;-78
2023/12/16 05:16:44;;;;;;;8.73;2.40;;;;;;;;;;5004155;28;95355;-80
2023/12/16 05:19:11;;;;;;;7.10;2.08;;;;;;;;;;5021061;28;92634;-78
2023/12/16 05:21:37;;;;;;;9.52;2.47;;;;;;;;;;5022099;28;92809;-78
2023/12/16 05:24:06;;;;;;;8.98;2.20;;;;;;;;;;4999215;28;99856;-79
2023/12/16 05:26:33;;;;;;;10.23;2.38;;;;;;;;;;5023925;28;92146;-80
2023/12/16 05:29:00;;;;;;;9.38;2.42;;;;;;;;;;4992204;28;95822;-80
2023/12/16 05:31:26;;;;;;;7.47;2.28;;;;;;;;;;5014617;28;93085;-81
2023/12/16 05:33:53;;;;;;;11.75;2.50;;;;;;;;;;5000521;28;92123;-80
2023/12/16 05:36:20;;;;;;;11.27;2.60;;;;;;;;;;5004792;28;95538;-79
2023/12/16 05:38:46;;;;;;;7.70;2.22;;;;;;;;;;5010292;28;92709;-80
2023/12/16 05:41:14;;;;;;;7.60;2.22;;;;;;;;;;5005658;28;91814;-80
2023/12/16 05:43:41;;;;;;;;;;;;;;;;;;4999357;28;93618;-79
2023/12/16 05:46:07;;;;;;;10.05;2.30;;;;;;;;;;5001145;28;92243;-79
2023/12/16 05:48:35;;;;;;;8.65;2.45;;;;;;;;;;4997871;28;95186;-80
2023/12/16 05:51:03;;;;;;;8.35;2.15;;;;;;;;;;4998259;28;92768;-80
2023/12/16 05:53:33;;;;;;;8.43;2.20;;;;;;;;;;5000705;28;92234;-79
2023/12/16 05:55:59;;;;;;;6.45;2.42;;;;;;;;;;4997684;28;93350;-80
2023/12/16 05:58:26;;;;;;;8.50;2.25;;;;;;;;;;4999236;28;92660;-79
2023/12/16 06:00:53;;;;;;;8.45;2.60;;;;;;;;;;4982698;28;92247;-79
2023/12/16 06:03:20;;;;;;;8.38;2.33;;;;;;;;;;4985423;28;92785;-79
2023/12/16 06:05:46;;;;;;;9.52;2.22;;;;;;;;;;5002044;28;91319;-79
2023/12/16 06:08:13;;;;;;;7.25;2.30;;;;;;;;;;5015436;28;92246;-80
2023/12/16 06:10:40;;;;;;;9.32;2.35;;;;;;;;;;4998750;28;94589;-80
2023/12/16 06:13:06;;;;;;;7.72;2.47;;;;;;;;;;5009226;28;94636;-80
2023/12/16 06:15:33;;;;;;;9.35;2.35;;;;;;;;;;5004236;28;96658;-79
2023/12/16 06:18:03;;;;;;;9.10;2.33;;;;;;;;;;4997729;28;95787;-79
2023/12/16 06:20:30;;;;;;;9.27;2.40;;;;;;;;;;5003159;28;92410;-79
2023/12/16 06:22:57;;;;;;;9.40;2.45;;;;;;;;;;4998927;28;94727;-80
2023/12/16 06:25:24;;;;;;;11.35;2.38;;;;;;;;;;5001308;28;94572;-79
2023/12/16 06:27:51;;;;;;;9.05;2.50;;;;;;;;;;4999746;28;92760;-79
2023/12/16 06:30:18;;;;;;;6.15;2.10;;;;;;;;;;5000411;28;94036;-79
2023/12/16 06:32:44;;;;;;;9.07;2.70;;;;;;;;;;4996928;28;92245;-79
2023/12/16 06:35:11;;;;;;;9.15;2.42;;;;;;;;;;4998666;28;92688;-79
2023/12/16 06:37:38;;;;;;;7.82;2.47;;;;;;;;;;4980853;28;96377;-81
2023/12/16 06:40:06;;;;;;;7.63;2.25;;;;;;;;;;4991743;28;93452;-80
2023/12/16 06:42:32;;;;;;;7.97;2.40;;;;;;;;;;5020802;28;92844;-79
2023/12/16 06:44:59;;;;;;;8.98;2.47;;;;;;;;;;5001922;28;94490;-80
2023/12/16 06:47:26;;;;;;;7.10;2.20;;;;;;;;;;5023223;28;92676;-80
2023/12/16 06:49:53;;;;;;;8.85;2.45;;;;;;;;;;5019481;27;93123;-80
2023/12/16 06:52:20;;;;;;;8.38;2.13;;;;;;;;;;5019753;27;92246;-81
2023/12/16 06:54:46;;;;;;;9.73;2.70;;;;;;;;;;5019902;27;94261;-80
2023/12/16 06:57:13;;;;;;;9.02;2.30;;;;;;;;;;5020307;28;92801;-79
2023/12/16 06:59:39;;;;;;;8.23;2.33;;;;;;;;;;5018757;28;92574;-79
2023/12/16 07:02:07;;;;;;;10.27;2.47;;;;;;;;;;5016310;28;99154;-80
2023/12/16 07:04:33;;;;;;;10.15;2.50;;;;;;;;;;5018709;27;93740;-79
2023/12/16 07:07:00;;;;;;;11.07;2.65;;;;;;;;;;5018601;28;94514;-78
2023/12/16 07:09:27;;;;;;;10.00;2.80;;;;;;;;;;5007930;27;92477;-79
2023/12/16 07:11:54;;;;;;;9.93;2.40;;;;;;;;;;4997708;28;92971;-79
2023/12/16 07:14:21;;;;;;;9.23;2.78;;;;;;;;;;5015652;28;92561;-78
2023/12/16 07:16:47;;;;;;;10.68;2.63;;;;;;;;;;4999867;28;95120;-79
2023/12/16 07:19:16;;;;;;;8.43;2.10;;;;;;;;;;4996297;28;91848;-78
2023/12/16 07:21:43;;;;;;;8.82;2.30;;;;;;;;;;4980002;28;92167;-79
2023/12/16 07:24:10;;;;;;;9.75;2.67;;;;;;;;;;4995032;28;92950;-77
2023/12/16 07:26:36;;;;;;;11.25;2.88;;;;;;;;;;4978034;28;96037;-77
2023/12/16 07:29:03;;;;;;;11.60;3.10;;;;;;;;;;5008088;28;97559;-77
2023/12/16 07:31:29;;;;;;;10.32;2.58;;;;;;;;;;5000485;28;92537;-76
2023/12/16 07:33:56;;;;;;;8.77;2.60;;;;;;;;;;4995181;28;92429;-77
2023/12/16 07:36:23;;;;;;;7.97;2.03;;;;;;;;;;4986840;28;92177;-77
2023/12/16 07:38:50;;;;;;;10.52;2.35;;;;;;;;;;5005711;28;92688;-77
2023/12/16 07:41:16;;;;;;;11.05;2.55;;;;;;;;;;4998753;28;92369;-77
2023/12/16 07:43:43;;;;;;;9.13;2.63;;;;;;;;;;4999266;28;92804;-78
2023/12/16 07:46:09;;;;;;;7.78;2.22;;;;;;;;;;5001968;28;92442;-77
2023/12/16 07:48:36;;;;;;;8.27;2.30;;;;;;;;;;5002403;28;92572;-77
2023/12/16 07:51:03;;;;;;;11.15;2.30;;;;;;;;;;5003590;28;95059;-76
2023/12/16 07:53:29;;;;;;;10.35;2.80;;;;;;;;;;5001988;28;95587;-77
2023/12/16 07:55:56;;;;;;;9.32;2.30;;;;;;;;;;5016955;28;93317;-77
2023/12/16 07:58:23;;;;;;;7.50;2.25;;;;;;;;;;5003176;28;92474;-77
2023/12/16 08:00:50;;;;;;;8.70;2.45;;;;;;;;;;5018292;28;92706;-77
2023/12/16 08:03:16;;;;;;;7.28;2.13;;;;;;;;;;5002687;28;92945;-79
2023/12/16 08:05:43;;;;;;;7.60;2.08;;;;;;;;;;5015365;27;92119;-78
2023/12/16 08:08:10;;;;;;;8.38;2.30;;;;;;;;;;5021561;28;95500;-77
2023/12/16 08:10:36;;;;;;;7.22;2.40;;;;;;;;;;5023514;27;92819;-78
2023/12/16 08:13:03;;;;;;;8.80;2.40;;;;;;;;;;5025362;28;92172;-77
2023/12/16 08:15:29;;;;;;;9.68;2.17;;;;;;;;;;5019963;27;95786;-78
2023/12/16 08:17:56;;;;;;;6.65;2.30;;;;;;;;;;5022626;27;92146;-78
2023/12/16 08:20:22;;;;;;;11.32;2.42;;;;;;;;;;4999062;28;93154;-78
2023/12/16 08:22:49;;;;;;;9.35;2.65;;;;;;;;;;4994193;28;94929;-79
2023/12/16 08:25:16;;;;;;;10.65;2.47;;;;;;;;;;5009683;28;92348;-78
2023/12/16 08:27:43;;;;;;;9.77;2.33;;;;;;;;;;5002109;28;94648;-78
2023/12/16 08:30:10;;;;;;;8.45;2.40;;;;;;;;;;5007046;28;92711;-78
2023/12/16 08:32:36;;;;;;;10.70;2.35;;;;;;;;;;5015868;28;92027;-77
2023/12/16 08:35:03;;;;;;;6.10;2.05;;;;;;;;;;5004883;28;92450;-78
2023/12/16 08:37:30;;;;;;;6.32;1.90;;;;;;;;;;5002824;28;92502;-77
2023/12/16 08:39:57;;;;;;;10.25;2.30;;;;;;;;;;4989173;28;95492;-77
2023/12/16 08:42:23;;;;;;;9.13;2.40;;;;;;;;;;4983108;28;92879;-77
2023/12/16 08:44:51;;;;;;;9.73;2.08;;;;;;;;;;4979699;28;93932;-77
2023/12/16 08:47:18;;;;;;;8.68;1.88;;;;;;;;;;5000830;28;92465;-77
2023/12/16 08:49:44;;;;;;;7.55;2.10;;;;;;;;;;4983076;28;95176;-78
2023/12/16 08:52:12;;;;;;;9.30;2.22;;;;;;;;;;5003150;28;92482;-77
2023/12/16 08:54:41;;;;;;;7.13;2.05;;;;;;;;;;5000874;28;92753;-77
2023/12/16 08:57:07;;;;;;;8.15;2.10;;;;;;;;;;5005303;28;91811;-77
2023/12/16 08:59:35;;;;;;;7.55;1.98;;;;;;;;;;5001879;28;92223;-76
2023/12/16 09:02:02;;;;;;;7.40;2.15;;;;;;;;;;5000498;28;95514;-75
2023/12/16 09:04:29;;;;;;;5.57;1.85;;;;;;;;;;5003111;28;94686;-77
2023/12/16 09:06:56;;;;;;;7.07;2.03;;;;;;;;;;5023020;28;94767;-78
2023/12/16 09:09:24;;;;;;;6.15;1.90;;;;;;;;;;5022267;28;93379;-77
2023/12/16 09:11:51;;;;;;;8.05;2.22;;;;;;;;;;5004460;28;92010;-78
2023/12/16 09:14:19;;;;;;;6.80;1.90;;;;;;;;;;5020722;28;92602;-78
2023/12/16 09:16:45;;;;;;;8.77;2.10;;;;;;;;;;5021051;28;95263;-79
2023/12/16 09:19:12;;;;;;;5.55;1.80;;;;;;;;;;5025067;27;92206;-80
2023/12/16 09:21:39;;;;;;;;;;;;;;;;;;5004773;28;93493;-79
2023/12/16 09:24:06;;;;;;;8.20;2.08;;;;;;;;;;5022944;27;92175;-78
2023/12/16 09:26:33;;;;;;;13.40;2.40;;;;;;;;;;5003575;28;94168;-78
2023/12/16 09:29:00;;;;;;;11.82;2.50;;;;;;;;;;5019512;28;95170;-77
2023/12/16 09:31:27;;;;;;;9.70;2.00;;;;;;;;;;5020417;28;92761;-78
2023/12/16 09:33:54;;;;;;;8.80;2.22;;;;;;;;;;5020747;27;92506;-78
2023/12/16 09:36:26;;;;;;;7.65;2.10;;;;;;;;;;5004427;28;95327;-77
2023/12/16 09:38:54;;;;;;;9.55;2.20;;;;;;;;;;5013658;28;92409;-79
2023/12/16 09:41:23;;;;;;;10.70;2.28;;;;;;;;;;5000191;28;93789;-79
2023/12/16 09:43:52;;;;;;;7.80;1.92;;;;;;;;;;4982953;28;92992;-79
2023/12/16 09:46:20;;;;;;;6.93;2.00;;;;;;;;;;5002263;28;92703;-79
2023/12/16 09:48:47;;;;;;;7.25;2.08;;;;;;;;;;5000310;28;92793;-79
2023/12/16 09:51:14;;;;;;;5.32;1.80;;;;;;;;;;5001732;28;92420;-79
2023/12/16 09:53:41;;;;;;;5.30;1.80;;;;;;;;;;4998399;28;94768;-81
2023/12/16 09:56:09;;;;;;;8.02;2.03;;;;;;;;;;4999787;28;92442;-78
2023/12/16 09:58:38;;;;;;;8.20;2.03;;;;;;;;;;4999950;28;92386;-80
2023/12/16 10:01:07;;;;;;;7.35;2.00;;;;;;;;;;5003829;28;93870;-80
2023/12/16 10:03:34;;;;;;;6.22;1.90;;;;;;;;;;5001036;28;92758;-80
2023/12/16 10:06:02;;;;;;;7.88;2.28;;;;;;;;;;4996969;28;92787;-81
2023/12/16 10:08:29;;;;;;;8.57;2.00;;;;;;;;;;5003314;28;93049;-82
2023/12/16 10:10:59;;;;;;;7.55;1.90;;;;;;;;;;5008562;28;91637;-81
2023/12/16 10:13:57;;;;;;;6.85;2.00;;;;;;;;;;5014340;28;91921;-81
2023/12/16 10:16:24;;;;;;;6.13;1.77;;;;;;;;;;4994424;28;98021;-81
2023/12/16 10:18:52;;;;;;;7.75;1.90;;;;;;;;;;5005587;28;94915;-81
2023/12/16 10:21:39;;;;;;;6.68;2.00;;;;;;;;;;4998481;28;97347;-80
2023/12/16 10:24:08;;;;;;;7.35;1.90;;;;;;;;;;5009556;28;97033;-80
2023/12/16 10:26:40;;;;;;;6.15;1.90;;;;;;;;;;5000786;28;92592;-78
2023/12/16 10:29:07;;;;;;;7.80;2.13;;;;;;;;;;5011762;28;92605;-80
2023/12/16 10:31:34;;;;;;;7.43;2.20;;;;;;;;;;5037446;28;92721;-81
2023/12/16 10:34:01;;;;;;;6.60;1.85;;;;;;;;;;5019607;27;92836;-80
2023/12/16 10:36:29;;;;;;;7.45;1.90;;;;;;;;;;5021656;27;91364;-79
2023/12/16 10:38:56;;;;;;;5.97;1.80;;;;;;;;;;5019772;27;92088;-80
2023/12/16 10:41:23;;;;;;;5.97;1.92;;;;;;;;;;5007677;28;94788;-79
2023/12/16 10:43:49;;;;;;;7.50;1.92;;;;;;;;;;4953624;28;97807;-80
2023/12/16 10:46:21;;;;;;;7.03;2.00;;;;;;;;;;4998940;28;92040;-79
2023/12/16 10:48:49;;;;;;;7.53;2.00;;;;;;;;;;4981395;28;95696;-81
2023/12/16 10:51:16;;;;;;;9.57;2.13;;;;;;;;;;5008952;28;92332;-81
2023/12/16 10:53:55;;;;;;;6.53;2.10;;;;;;;;;;5000997;28;92924;-79
2023/12/16 10:56:27;;;;;;;5.88;1.95;;;;;;;;;;5000775;28;95359;-80
2023/12/16 10:59:21;;;;;;;5.55;1.90;;;;;;;;;;4992854;28;92465;-82
2023/12/16 11:01:55;;;;;;;9.00;2.00;;;;;;;;;;5000825;28;92855;-81
2023/12/16 11:04:27;;;;;;;6.90;2.35;;;;;;;;;;4982375;28;92771;-80
2023/12/16 11:06:57;;;;;;;6.70;2.05;;;;;;;;;;5001796;28;92082;-81
2023/12/16 11:09:23;;;;;;;7.63;2.10;;;;;;;;;;4984751;28;95351;-81
2023/12/16 11:11:50;;;;;;;10.57;2.40;;;;;;;;;;5011175;28;92655;-79
2023/12/16 11:14:17;;;;;;;7.13;2.15;;;;;;;;;;4982986;28;94330;-78
2023/12/16 11:17:02;;;;;;;8.88;2.42;;;;;;;;;;5025290;28;92782;-79
2023/12/16 11:19:32;;;;;;;8.52;2.17;;;;;;;;;;5006103;28;92310;-79
2023/12/16 11:22:01;;;;;;;6.70;2.05;;;;;;;;;;4986622;28;95405;-82
2023/12/16 11:24:27;;;;;;;;;;;;;;;;;;5013285;28;92707;-83
2023/12/16 11:27:05;;;;;;;8.70;2.40;;;;;;;;;;5011632;28;91165;-83
2023/12/16 11:29:34;;;;;;;8.15;2.20;;;;;;;;;;5007907;28;93774;-83
2023/12/16 11:32:08;;;;;;;7.72;2.10;;;;;;;;;;5008350;28;92767;-81
2023/12/16 11:34:38;;;;;;;6.63;2.03;;;;;;;;;;5003385;28;95436;-83
2023/12/16 11:37:06;;;;;;;8.15;2.00;;;;;;;;;;4996978;28;95251;-79
2023/12/16 11:39:39;;;;;;;9.30;2.60;;;;;;;;;;5022658;28;92532;-84
2023/12/16 11:42:35;;;;;;;9.25;2.40;;;;;;;;;;4987640;28;97082;-82
2023/12/16 11:45:03;;;;;;;8.13;2.20;;;;;;;;;;5004242;28;94636;-82
2023/12/16 11:47:35;;;;;;;7.25;2.25;;;;;;;;;;5005095;28;92345;-82
2023/12/16 11:50:05;;;;;;;8.68;2.55;;;;;;;;;;5004980;28;93112;-82
2023/12/16 11:52:37;;;;;;;8.23;2.58;;;;;;;;;;4995975;28;94436;-82
2023/12/16 11:55:05;;;;;;;6.45;2.10;;;;;;;;;;4968581;28;94175;-81
2023/12/16 11:57:34;;;;;;;7.18;2.20;;;;;;;;;;4980985;28;94341;-81
2023/12/16 12:00:01;;;;;;;9.85;2.45;;;;;;;;;;4980596;28;95300;-83
2023/12/16 12:02:39;;;;;;;7.03;2.30;;;;;;;;;;4993208;28;94404;-81
2023/12/16 12:05:11;;;;;;;7.63;2.45;;;;;;;;;;5015471;28;92975;-81
2023/12/16 12:07:39;;;;;;;7.13;2.17;;;;;;;;;;5007369;28;92547;-81
2023/12/16 12:10:09;;;;;;;7.75;2.20;;;;;;;;;;5005088;27;96845;-84
2023/12/16 12:12:39;;;;;;;8.23;2.30;;;;;;;;;;5010091;28;95881;-84
2023/12/16 12:15:11;;;;;;;6.18;2.33;;;;;;;;;;5019789;28;92277;-83
2023/12/16 12:17:49;;;;;;;6.60;1.95;;;;;;;;;;5001441;28;92300;-83
2023/12/16 12:20:20;;;;;;;8.13;2.40;;;;;;;;;;5006514;28;92210;-84
2023/12/16 12:22:48;;;;;;;8.57;2.33;;;;;;;;;;5015083;28;92429;-82
2023/12/16 12:25:17;;;;;;;7.97;2.60;;;;;;;;;;5017337;28;95080;-83
2023/12/16 12:28:00;;;;;;;6.95;2.40;;;;;;;;;;5018980;28;92438;-83
2023/12/16 12:30:27;;;;;;;6.97;2.50;;;;;;;;;;5012449;28;94435;-85
2023/12/16 12:32:59;;;;;;;;;;;;;;;;;;5016253;28;95197;-84
2023/12/16 12:35:30;;;;;;;7.05;2.05;;;;;;;;;;5040006;28;92411;-83
2023/12/16 12:37:59;;;;;;;6.00;2.28;;;;;;;;;;5016724;28;92398;-82
2023/12/16 12:40:30;;;;;;;7.38;2.30;;;;;;;;;;5028855;28;92219;-83
2023/12/16 12:43:00;;;;;;;;;;;;;;;;;;5015012;28;92326;-83
2023/12/16 12:45:31;;;;;;;7.50;2.28;;;;;;;;;;5009182;27;92846;-84
2023/12/16 12:48:10;;;;;;;7.03;2.33;;;;;;;;;;5005796;27;92748;-83
2023/12/16 12:50:43;;;;;;;8.13;2.30;;;;;;;;;;5002389;28;94606;-84
2023/12/16 12:53:16;;;;;;;7.22;2.35;;;;;;;;;;5002465;28;94801;-83
2023/12/16 12:55:50;;;;;;;5.60;2.33;;;;;;;;;;5020707;27;93759;-82
2023/12/16 12:58:18;;;;;;;10.48;2.45;;;;;;;;;;5004888;28;95835;-83
2023/12/16 13:00:56;;;;;;;6.90;2.30;;;;;;;;;;5006540;27;92317;-79
2023/12/16 13:03:24;;;;;;;7.25;2.42;;;;;;;;;;5000767;28;95162;-81
2023/12/16 13:05:51;;;;;;;8.38;2.38;;;;;;;;;;5017460;27;92690;-80
2023/12/16 13:08:18;;;;;;;;;;;;;;;;;;5002517;27;91361;-81
2023/12/16 13:10:46;;;;;;;6.40;2.10;;;;;;;;;;5002218;28;93359;-80
2023/12/16 13:13:13;;;;;;;6.50;2.30;;;;;;;;;;5013488;28;92714;-81
2023/12/16 13:15:40;;;;;;;5.97;2.08;;;;;;;;;;5004985;27;94683;-80
2023/12/16 13:18:22;;;;;;;6.43;2.45;;;;;;;;;;4999599;28;99344;-80
2023/12/16 13:20:50;;;;;;;6.18;2.33;;;;;;;;;;5002890;28;93067;-80
2023/12/16 13:23:17;;;;;;;6.75;2.13;;;;;;;;;;4985047;28;92376;-79
2023/12/16 13:25:46;;;;;;;6.35;2.30;;;;;;;;;;4983570;28;92982;-79
2023/12/16 13:28:13;;;;;;;6.43;2.20;;;;;;;;;;5002343;28;92688;-79
2023/12/16 13:30:41;;;;;;;6.63;2.00;;;;;;;;;;5001395;28;94751;-79
2023/12/16 13:33:09;;;;;;;5.10;2.00;;;;;;;;;;4998990;28;94229;-80
2023/12/16 13:35:39;;;;;;;7.13;2.05;;;;;;;;;;5011330;28;92330;-79
2023/12/16 13:38:06;;;;;;;6.70;2.35;;;;;;;;;;5017264;28;97079;-78
2023/12/16 13:40:33;;;;;;;6.07;2.20;;;;;;;;;;5021924;28;95941;-79
2023/12/16 13:43:08;;;;;;;6.53;2.20;;;;;;;;;;5008740;27;92660;-79
2023/12/16 13:45:35;;;;;;;4.82;1.90;;;;;;;;;;5004843;27;92500;-79
2023/12/16 13:48:02;;;;;;;6.60;2.22;;;;;;;;;;4998822;27;92207;-80
2023/12/16 13:50:29;;;;;;;6.45;2.22;;;;;;;;;;4983596;28;96574;-79
2023/12/16 13:52:56;;;;;;;;;;;;;;;;;;4999676;28;92839;-78
2023/12/16 13:55:23;;;;;;;6.00;2.20;;;;;;;;;;5001821;28;92241;-79
2023/12/16 13:57:50;;;;;;;6.40;2.53;;;;;;;;;;5001106;27;91770;-79
2023/12/16 14:00:17;;;;;;;5.78;2.40;;;;;;;;;;5000212;28;93470;-79
2023/12/16 14:02:43;;;;;;;8.07;2.70;;;;;;;;;;5001683;28;92456;-80
2023/12/16 14:05:10;;;;;;;7.03;2.75;;;;;;;;;;5013151;28;95036;-80
2023/12/16 14:07:37;;;;;;;7.43;2.70;;;;;;;;;;5004208;28;92503;-80
2023/12/16 14:10:08;;;;;;;6.53;2.65;;;;;;;;;;4982564;28;93704;-79
2023/12/16 14:12:35;;;;;;;7.20;2.72;;;;;;;;;;4983524;28;95473;-81
2023/12/16 14:15:02;;;;;;;7.35;2.75;;;;;;;;;;4984109;28;92335;-80
2023/12/16 14:17:29;;;;;;;8.15;2.90;;;;;;;;;;5000161;28;92461;-79
2023/12/16 14:19:56;;;;;;;7.18;2.50;;;;;;;;;;4982849;28;95585;-78
2023/12/16 14:22:23;;;;;;;6.38;2.58;;;;;;;;;;4982795;28;91868;-78
2023/12/16 14:24:50;;;;;;;6.90;2.45;;;;;;;;;;5008622;28;93928;-78
2023/12/16 14:27:19;;;;;;;7.20;2.70;;;;;;;;;;5020994;28;93777;-78
2023/12/16 14:29:46;;;;;;;6.90;2.75;;;;;;;;;;5017758;27;94407;-79
2023/12/16 14:32:13;;;;;;;6.25;2.63;;;;;;;;;;5021084;27;93029;-76
2023/12/16 14:34:39;;;;;;;6.15;2.42;;;;;;;;;;5019931;27;92458;-78
2023/12/16 14:37:06;;;;;;;6.38;2.50;;;;;;;;;;5020033;28;93184;-78
2023/12/16 14:39:33;;;;;;;7.80;2.60;;;;;;;;;;5016112;28;94647;-79
2023/12/16 14:42:00;;;;;;;;;;;;;;;;;;5020585;27;92083;-78
2023/12/16 14:44:27;;;;;;;7.47;3.20;;;;;;;;;;5022290;27;93833;-79
2023/12/16 14:46:54;;;;;;;7.20;2.80;;;;;;;;;;5013416;28;92868;-79
2023/12/16 14:49:22;;;;;;;7.43;2.85;;;;;;;;;;5021719;28;92562;-78